createdAt,value
2017-10-12T00:00:12.167Z,23.47
2017-10-12T00:00:25.558Z,23.63
2017-10-12T00:00:38.434Z,23.47
2017-10-12T00:00:51.945Z,23.55
2017-10-12T00:01:04.856Z,23.52
2017-10-12T00:01:17.771Z,23.5
2017-10-12T00:01:30.170Z,23.47
2017-10-12T00:01:43.666Z,23.44
2017-10-12T00:01:57.117Z,23.38
2017-10-12T00:02:09.524Z,23.38
2017-10-12T00:02:21.910Z,23.42
2017-10-12T00:02:34.817Z,23.37
2017-10-12T00:02:48.350Z,23.41
2017-10-12T00:03:00.721Z,23.41
2017-10-12T00:03:14.184Z,23.35
2017-10-12T00:03:27.625Z,23.38
2017-10-12T00:03:39.467Z,23.35
2017-10-12T00:03:52.917Z,23.37
2017-10-12T00:04:06.418Z,23.34
2017-10-12T00:04:18.742Z,23.32
2017-10-12T00:04:32.122Z,23.35
2017-10-12T00:04:45.611Z,23.35
2017-10-12T00:04:58.460Z,23.29
2017-10-12T00:05:10.823Z,23.26
2017-10-12T00:05:24.258Z,23.28
2017-10-12T00:05:36.609Z,23.29
2017-10-12T00:05:50.135Z,23.22
2017-10-12T00:06:03.630Z,23.26
2017-10-12T00:06:18.524Z,23.34
2017-10-12T00:06:31.973Z,23.26
2017-10-12T00:06:44.830Z,23.26
2017-10-12T00:06:57.243Z,23.29
2017-10-12T00:07:10.133Z,23.34
2017-10-12T00:07:23.008Z,23.25
2017-10-12T00:07:36.479Z,23.22
2017-10-12T00:07:49.942Z,23.25
2017-10-12T00:08:02.865Z,23.19
2017-10-12T00:08:16.319Z,23.24
2017-10-12T00:08:29.733Z,23.32
2017-10-12T00:08:42.672Z,23.19
2017-10-12T00:08:55.604Z,23.25
2017-10-12T00:09:09.090Z,23.19
2017-10-12T00:09:22.728Z,23.18
2017-10-12T00:09:36.222Z,23.16
2017-10-12T00:09:49.132Z,23.1
2017-10-12T00:10:02.556Z,23.15
2017-10-12T00:10:15.511Z,23.18
2017-10-12T00:10:28.424Z,23.18
2017-10-12T00:10:41.886Z,23.18
2017-10-12T00:10:55.356Z,23.09
2017-10-12T00:11:08.227Z,23.04
2017-10-12T00:11:21.148Z,23.03
2017-10-12T00:11:33.984Z,23.1
2017-10-12T00:11:47.396Z,23.09
2017-10-12T00:12:00.290Z,23.09
2017-10-12T00:12:12.635Z,23.07
2017-10-12T00:12:25.546Z,22.99
2017-10-12T00:12:37.895Z,22.92
2017-10-12T00:12:51.369Z,22.97
2017-10-12T00:13:04.807Z,22.92
2017-10-12T00:13:18.269Z,23
2017-10-12T00:13:31.680Z,22.86
2017-10-12T00:13:44.564Z,22.94
2017-10-12T00:13:58.042Z,22.92
2017-10-12T00:14:11.522Z,22.92
2017-10-12T00:14:23.990Z,22.94
2017-10-12T00:14:36.911Z,22.96
2017-10-12T00:14:50.311Z,22.91
2017-10-12T00:15:03.178Z,22.86
2017-10-12T00:15:16.595Z,22.88
2017-10-12T00:15:29.499Z,22.92
2017-10-12T00:15:42.398Z,22.84
2017-10-12T00:15:55.333Z,22.84
2017-10-12T00:16:08.765Z,22.81
2017-10-12T00:16:21.722Z,22.81
2017-10-12T00:16:34.683Z,22.84
2017-10-12T00:16:48.108Z,22.88
2017-10-12T00:17:01.037Z,22.82
2017-10-12T00:17:14.502Z,22.84
2017-10-12T00:17:27.436Z,22.89
2017-10-12T00:17:40.408Z,22.85
2017-10-12T00:17:53.921Z,22.85
2017-10-12T00:18:06.800Z,22.81
2017-10-12T00:18:19.165Z,22.88
2017-10-12T00:18:31.512Z,22.85
2017-10-12T00:18:43.345Z,22.81
2017-10-12T00:18:56.234Z,22.79
2017-10-12T00:19:08.634Z,22.81
2017-10-12T00:19:22.045Z,22.78
2017-10-12T00:19:34.968Z,22.79
2017-10-12T00:19:47.862Z,22.82
2017-10-12T00:20:01.278Z,22.82
2017-10-12T00:20:14.128Z,22.85
2017-10-12T00:20:27.074Z,22.73
2017-10-12T00:20:39.440Z,22.67
2017-10-12T00:20:52.321Z,22.75
2017-10-12T00:21:05.242Z,22.75
2017-10-12T00:21:18.645Z,22.79
2017-10-12T00:21:31.527Z,22.73
2017-10-12T00:21:43.911Z,22.88
2017-10-12T00:21:57.361Z,22.76
2017-10-12T00:22:10.784Z,22.79
2017-10-12T00:22:24.243Z,22.75
2017-10-12T00:22:37.716Z,22.76
2017-10-12T00:22:50.099Z,22.76
2017-10-12T00:23:03.527Z,22.78
2017-10-12T00:23:16.957Z,22.78
2017-10-12T00:23:30.420Z,22.85
2017-10-12T00:23:44.726Z,22.86
2017-10-12T00:23:58.187Z,22.79
2017-10-12T00:24:11.189Z,22.82
2017-10-12T00:24:25.677Z,22.79
2017-10-12T00:24:38.571Z,22.82
2017-10-12T00:24:52.027Z,22.76
2017-10-12T00:25:05.426Z,22.84
2017-10-12T00:25:18.357Z,22.79
2017-10-12T00:25:31.244Z,22.81
2017-10-12T00:25:44.192Z,22.85
2017-10-12T00:25:57.185Z,22.79
2017-10-12T00:26:10.658Z,22.67
2017-10-12T00:26:24.016Z,22.73
2017-10-12T00:26:37.514Z,22.71
2017-10-12T00:26:50.456Z,22.76
2017-10-12T00:27:03.862Z,22.75
2017-10-12T00:27:17.346Z,22.78
2017-10-12T00:27:29.700Z,22.71
2017-10-12T00:27:42.092Z,22.66
2017-10-12T00:27:55.015Z,22.67
2017-10-12T00:28:08.433Z,22.67
2017-10-12T00:28:22.091Z,22.7
2017-10-12T00:28:35.035Z,22.64
2017-10-12T00:28:47.958Z,22.64
2017-10-12T00:29:00.378Z,22.64
2017-10-12T00:29:13.812Z,22.64
2017-10-12T00:29:26.799Z,22.66
2017-10-12T00:29:39.195Z,22.66
2017-10-12T00:29:51.583Z,22.61
2017-10-12T00:30:05.043Z,22.64
2017-10-12T00:30:17.961Z,22.59
2017-10-12T00:30:30.908Z,22.54
2017-10-12T00:30:43.859Z,22.57
2017-10-12T00:30:57.283Z,22.59
2017-10-12T00:31:10.227Z,22.66
2017-10-12T00:31:23.736Z,22.54
2017-10-12T00:31:36.673Z,22.63
2017-10-12T00:31:50.074Z,22.6
2017-10-12T00:32:03.547Z,22.61
2017-10-12T00:32:17.010Z,22.54
2017-10-12T00:32:30.547Z,22.6
2017-10-12T00:32:44.022Z,22.54
2017-10-12T00:32:57.481Z,22.63
2017-10-12T00:33:10.973Z,22.57
2017-10-12T00:33:24.422Z,22.6
2017-10-12T00:33:37.894Z,22.52
2017-10-12T00:33:51.406Z,22.57
2017-10-12T00:34:03.791Z,22.54
2017-10-12T00:34:16.750Z,22.61
2017-10-12T00:34:30.206Z,22.57
2017-10-12T00:34:43.145Z,22.59
2017-10-12T00:34:56.598Z,22.61
2017-10-12T00:35:09.520Z,22.54
2017-10-12T00:35:22.963Z,22.57
2017-10-12T00:35:35.861Z,22.63
2017-10-12T00:35:48.235Z,22.54
2017-10-12T00:36:00.651Z,22.52
2017-10-12T00:36:14.158Z,22.6
2017-10-12T00:36:27.557Z,22.63
2017-10-12T00:36:40.976Z,22.6
2017-10-12T00:36:54.463Z,22.6
2017-10-12T00:37:07.905Z,22.57
2017-10-12T00:37:21.348Z,22.57
2017-10-12T00:37:34.197Z,22.59
2017-10-12T00:37:46.506Z,22.54
2017-10-12T00:37:59.909Z,22.61
2017-10-12T00:38:13.364Z,22.54
2017-10-12T00:38:26.308Z,22.6
2017-10-12T00:38:38.707Z,22.52
2017-10-12T00:38:51.647Z,22.6
2017-10-12T00:39:05.049Z,22.55
2017-10-12T00:39:17.937Z,22.6
2017-10-12T00:39:31.549Z,22.55
2017-10-12T00:39:43.992Z,22.54
2017-10-12T00:39:56.924Z,22.52
2017-10-12T00:40:10.331Z,22.61
2017-10-12T00:40:23.778Z,22.51
2017-10-12T00:40:37.218Z,22.51
2017-10-12T00:40:50.745Z,22.57
2017-10-12T00:41:03.667Z,22.54
2017-10-12T00:41:17.099Z,22.51
2017-10-12T00:41:29.997Z,22.59
2017-10-12T00:41:42.907Z,22.59
2017-10-12T00:41:56.407Z,22.52
2017-10-12T00:42:09.821Z,22.48
2017-10-12T00:42:23.265Z,22.57
2017-10-12T00:42:36.154Z,22.57
2017-10-12T00:42:49.557Z,22.52
2017-10-12T00:43:03.054Z,22.55
2017-10-12T00:43:16.513Z,22.57
2017-10-12T00:43:29.965Z,22.48
2017-10-12T00:43:42.320Z,22.55
2017-10-12T00:43:55.224Z,22.55
2017-10-12T00:44:08.145Z,22.54
2017-10-12T00:44:21.615Z,22.52
2017-10-12T00:44:34.449Z,22.51
2017-10-12T00:44:47.886Z,22.44
2017-10-12T00:45:00.814Z,22.42
2017-10-12T00:45:13.735Z,22.45
2017-10-12T00:45:27.131Z,22.45
2017-10-12T00:45:39.519Z,22.31
2017-10-12T00:45:50.786Z,22.34
2017-10-12T00:46:03.137Z,22.27
2017-10-12T00:46:16.624Z,22.41
2017-10-12T00:46:29.573Z,22.34
2017-10-12T00:46:42.490Z,22.3
2017-10-12T00:46:55.443Z,22.33
2017-10-12T00:47:08.380Z,22.3
2017-10-12T00:47:20.726Z,22.3
2017-10-12T00:47:33.668Z,22.31
2017-10-12T00:47:46.606Z,22.36
2017-10-12T00:48:00.056Z,22.31
2017-10-12T00:48:13.521Z,22.3
2017-10-12T00:48:26.407Z,22.34
2017-10-12T00:48:39.889Z,22.33
2017-10-12T00:48:53.340Z,22.41
2017-10-12T00:49:06.754Z,22.29
2017-10-12T00:49:19.659Z,22.36
2017-10-12T00:49:32.600Z,22.3
2017-10-12T00:49:45.493Z,22.27
2017-10-12T00:49:57.848Z,22.36
2017-10-12T00:50:11.317Z,22.31
2017-10-12T00:50:23.675Z,22.29
2017-10-12T00:50:36.610Z,22.31
2017-10-12T00:50:49.481Z,22.27
2017-10-12T00:51:02.931Z,22.3
2017-10-12T00:51:15.864Z,22.27
2017-10-12T00:51:29.301Z,22.23
2017-10-12T00:51:42.694Z,22.31
2017-10-12T00:51:56.138Z,22.29
2017-10-12T00:52:09.524Z,22.29
2017-10-12T00:52:22.450Z,22.27
2017-10-12T00:52:35.930Z,22.24
2017-10-12T00:52:48.896Z,22.22
2017-10-12T00:53:02.358Z,22.15
2017-10-12T00:53:15.750Z,22.16
2017-10-12T00:53:28.151Z,22.18
2017-10-12T00:53:41.085Z,22.24
2017-10-12T00:53:54.539Z,22.16
2017-10-12T00:54:07.516Z,22.23
2017-10-12T00:54:20.944Z,22.2
2017-10-12T00:54:35.037Z,22.18
2017-10-12T00:54:48.459Z,22.24
2017-10-12T00:55:01.874Z,22.23
2017-10-12T00:55:15.332Z,22.22
2017-10-12T00:55:27.714Z,22.2
2017-10-12T00:55:40.609Z,22.16
2017-10-12T00:55:53.519Z,22.24
2017-10-12T00:56:06.974Z,22.18
2017-10-12T00:56:18.830Z,22.26
2017-10-12T00:56:32.216Z,22.12
2017-10-12T00:56:45.140Z,22.2
2017-10-12T00:56:58.599Z,22.22
2017-10-12T00:57:11.506Z,22.11
2017-10-12T00:57:24.423Z,22.12
2017-10-12T00:57:37.902Z,22.09
2017-10-12T00:57:50.820Z,22.16
2017-10-12T00:58:04.258Z,22.22
2017-10-12T00:58:17.141Z,22.16
2017-10-12T00:58:30.081Z,22.15
2017-10-12T00:58:43.578Z,22.2
2017-10-12T00:58:56.474Z,22.2
2017-10-12T00:59:09.380Z,22.18
2017-10-12T00:59:22.828Z,22.18
2017-10-12T00:59:35.902Z,22.18
2017-10-12T00:59:49.351Z,22.23
2017-10-12T01:00:01.671Z,22.18
2017-10-12T01:00:15.115Z,22.14
2017-10-12T01:00:27.992Z,22.22
2017-10-12T01:00:41.463Z,22.23
2017-10-12T01:00:54.324Z,22.22
2017-10-12T01:01:07.258Z,22.18
2017-10-12T01:01:20.189Z,22.18
2017-10-12T01:01:33.620Z,22.24
2017-10-12T01:01:46.504Z,22.23
2017-10-12T01:01:59.981Z,22.22
2017-10-12T01:02:12.349Z,22.15
2017-10-12T01:02:25.874Z,22.18
2017-10-12T01:02:39.271Z,22.18
2017-10-12T01:02:52.150Z,22.22
2017-10-12T01:03:05.088Z,22.22
2017-10-12T01:03:17.436Z,22.27
2017-10-12T01:03:30.851Z,22.18
2017-10-12T01:03:44.293Z,22.24
2017-10-12T01:03:57.765Z,22.24
2017-10-12T01:04:11.256Z,22.23
2017-10-12T01:04:24.709Z,22.22
2017-10-12T01:04:37.583Z,22.27
2017-10-12T01:04:51.017Z,22.26
2017-10-12T01:05:04.666Z,22.22
2017-10-12T01:05:18.095Z,22.26
2017-10-12T01:05:31.612Z,22.27
2017-10-12T01:05:45.069Z,22.31
2017-10-12T01:05:57.967Z,22.23
2017-10-12T01:06:10.388Z,22.29
2017-10-12T01:06:23.822Z,22.18
2017-10-12T01:06:36.790Z,22.24
2017-10-12T01:06:50.278Z,22.26
2017-10-12T01:07:03.731Z,22.24
2017-10-12T01:07:16.678Z,22.18
2017-10-12T01:07:29.596Z,22.2
2017-10-12T01:07:42.501Z,22.16
2017-10-12T01:07:55.986Z,22.23
2017-10-12T01:08:09.465Z,22.24
2017-10-12T01:08:22.354Z,22.15
2017-10-12T01:08:34.695Z,22.18
2017-10-12T01:08:48.139Z,22.18
2017-10-12T01:09:01.049Z,22.16
2017-10-12T01:09:13.398Z,22.05
2017-10-12T01:09:26.903Z,22.07
2017-10-12T01:09:40.066Z,22.09
2017-10-12T01:09:53.562Z,22.09
2017-10-12T01:10:06.494Z,22.15
2017-10-12T01:10:19.983Z,22.12
2017-10-12T01:10:33.424Z,22.07
2017-10-12T01:10:46.877Z,22
2017-10-12T01:10:59.829Z,21.94
2017-10-12T01:11:13.242Z,21.97
2017-10-12T01:11:26.700Z,22.04
2017-10-12T01:11:40.231Z,21.94
2017-10-12T01:11:53.103Z,21.94
2017-10-12T01:12:06.542Z,21.99
2017-10-12T01:12:19.493Z,21.99
2017-10-12T01:12:32.356Z,21.9
2017-10-12T01:12:45.812Z,21.9
2017-10-12T01:12:59.295Z,21.86
2017-10-12T01:13:11.684Z,21.89
2017-10-12T01:13:25.114Z,21.92
2017-10-12T01:13:37.988Z,21.83
2017-10-12T01:13:51.483Z,21.85
2017-10-12T01:14:04.897Z,21.9
2017-10-12T01:14:18.383Z,21.82
2017-10-12T01:14:31.849Z,21.89
2017-10-12T01:14:44.872Z,21.86
2017-10-12T01:14:57.775Z,21.85
2017-10-12T01:15:11.203Z,21.83
2017-10-12T01:15:24.660Z,21.86
2017-10-12T01:15:38.136Z,21.86
2017-10-12T01:15:51.521Z,21.9
2017-10-12T01:16:04.982Z,21.89
2017-10-12T01:16:18.430Z,21.9
2017-10-12T01:16:31.873Z,21.83
2017-10-12T01:16:45.330Z,21.82
2017-10-12T01:16:58.817Z,21.96
2017-10-12T01:17:11.140Z,21.9
2017-10-12T01:17:24.080Z,21.86
2017-10-12T01:17:36.449Z,21.85
2017-10-12T01:17:49.342Z,21.93
2017-10-12T01:18:01.732Z,21.82
2017-10-12T01:18:14.037Z,21.85
2017-10-12T01:18:26.962Z,21.9
2017-10-12T01:18:39.907Z,21.9
2017-10-12T01:18:51.693Z,21.9
2017-10-12T01:19:05.216Z,21.89
2017-10-12T01:19:18.636Z,21.83
2017-10-12T01:19:32.123Z,21.82
2017-10-12T01:19:45.041Z,21.83
2017-10-12T01:19:57.954Z,21.8
2017-10-12T01:20:10.306Z,21.85
2017-10-12T01:20:22.696Z,21.85
2017-10-12T01:20:35.686Z,21.93
2017-10-12T01:20:48.573Z,21.8
2017-10-12T01:21:01.966Z,21.82
2017-10-12T01:21:14.902Z,21.78
2017-10-12T01:21:27.825Z,21.82
2017-10-12T01:21:41.215Z,21.83
2017-10-12T01:21:54.644Z,21.8
2017-10-12T01:22:08.112Z,21.85
2017-10-12T01:22:20.983Z,21.9
2017-10-12T01:22:33.404Z,21.94
2017-10-12T01:22:46.853Z,21.9
2017-10-12T01:23:00.275Z,21.9
2017-10-12T01:23:13.733Z,21.9
2017-10-12T01:23:27.195Z,21.85
2017-10-12T01:23:40.638Z,21.9
2017-10-12T01:23:54.025Z,21.96
2017-10-12T01:24:07.471Z,21.97
2017-10-12T01:24:20.887Z,21.92
2017-10-12T01:24:33.819Z,21.92
2017-10-12T01:24:47.379Z,21.92
2017-10-12T01:25:00.800Z,21.94
2017-10-12T01:25:14.235Z,21.93
2017-10-12T01:25:27.125Z,22.02
2017-10-12T01:25:40.606Z,21.99
2017-10-12T01:25:52.990Z,21.96
2017-10-12T01:26:06.418Z,22.02
2017-10-12T01:26:19.313Z,21.92
2017-10-12T01:26:32.217Z,22.04
2017-10-12T01:26:45.653Z,22.07
2017-10-12T01:26:59.056Z,22.07
2017-10-12T01:27:11.954Z,22.09
2017-10-12T01:27:24.865Z,22.08
2017-10-12T01:27:38.303Z,22.05
2017-10-12T01:27:51.741Z,22.02
2017-10-12T01:28:05.219Z,22.11
2017-10-12T01:28:17.580Z,22.07
2017-10-12T01:28:31.025Z,22.07
2017-10-12T01:28:43.360Z,22.11
2017-10-12T01:28:56.286Z,22.07
2017-10-12T01:29:09.197Z,22.11
2017-10-12T01:29:22.632Z,22.11
2017-10-12T01:29:35.560Z,22.04
2017-10-12T01:29:49.175Z,22.08
2017-10-12T01:30:02.091Z,22
2017-10-12T01:30:14.961Z,22.14
2017-10-12T01:30:28.389Z,22.08
2017-10-12T01:30:40.759Z,22.11
2017-10-12T01:30:53.663Z,22.05
2017-10-12T01:31:06.028Z,22.08
2017-10-12T01:31:19.429Z,22.07
2017-10-12T01:31:32.908Z,22.09
2017-10-12T01:31:45.828Z,22.11
2017-10-12T01:31:58.745Z,22.02
2017-10-12T01:32:11.640Z,22.05
2017-10-12T01:32:24.516Z,22.09
2017-10-12T01:32:37.408Z,22.11
2017-10-12T01:32:50.842Z,22.04
2017-10-12T01:33:03.761Z,22.05
2017-10-12T01:33:17.264Z,22.07
2017-10-12T01:33:29.070Z,22.07
2017-10-12T01:33:41.902Z,22.05
2017-10-12T01:33:55.358Z,22.02
2017-10-12T01:34:08.861Z,21.97
2017-10-12T01:34:21.738Z,21.92
2017-10-12T01:34:34.689Z,21.92
2017-10-12T01:34:47.581Z,22.05
2017-10-12T01:35:01.058Z,21.93
2017-10-12T01:35:14.540Z,22.04
2017-10-12T01:35:27.448Z,22.05
2017-10-12T01:35:40.883Z,21.9
2017-10-12T01:35:54.359Z,22.05
2017-10-12T01:36:07.251Z,21.99
2017-10-12T01:36:20.193Z,22.02
2017-10-12T01:36:33.642Z,22.04
2017-10-12T01:36:47.095Z,21.96
2017-10-12T01:36:59.934Z,22.04
2017-10-12T01:37:12.330Z,22.04
2017-10-12T01:37:25.217Z,22.05
2017-10-12T01:37:38.152Z,22.11
2017-10-12T01:37:51.623Z,22.09
2017-10-12T01:38:04.027Z,22.12
2017-10-12T01:38:17.521Z,22.11
2017-10-12T01:38:30.924Z,21.97
2017-10-12T01:38:43.851Z,21.97
2017-10-12T01:38:57.273Z,22.05
2017-10-12T01:39:10.712Z,22.02
2017-10-12T01:39:24.206Z,21.97
2017-10-12T01:39:37.620Z,21.96
2017-10-12T01:39:50.512Z,21.97
2017-10-12T01:40:03.620Z,21.9
2017-10-12T01:40:16.600Z,21.92
2017-10-12T01:40:29.997Z,21.92
2017-10-12T01:40:43.428Z,21.9
2017-10-12T01:40:56.854Z,22
2017-10-12T01:41:10.291Z,21.96
2017-10-12T01:41:23.228Z,22.04
2017-10-12T01:41:36.202Z,21.96
2017-10-12T01:41:48.538Z,21.97
2017-10-12T01:42:01.972Z,21.97
2017-10-12T01:42:13.792Z,22.08
2017-10-12T01:42:26.183Z,22.02
2017-10-12T01:42:39.666Z,22
2017-10-12T01:42:52.504Z,22.02
2017-10-12T01:43:05.361Z,21.93
2017-10-12T01:43:18.813Z,22.08
2017-10-12T01:43:32.239Z,22.02
2017-10-12T01:43:45.114Z,21.99
2017-10-12T01:43:57.996Z,21.99
2017-10-12T01:44:10.327Z,22.04
2017-10-12T01:44:23.262Z,21.96
2017-10-12T01:44:35.591Z,22
2017-10-12T01:44:48.505Z,22.08
2017-10-12T01:45:01.393Z,22.05
2017-10-12T01:45:13.715Z,22.04
2017-10-12T01:45:27.143Z,21.9
2017-10-12T01:45:40.029Z,22.05
2017-10-12T01:45:53.435Z,22.02
2017-10-12T01:46:06.879Z,21.96
2017-10-12T01:46:20.339Z,21.92
2017-10-12T01:46:33.203Z,21.99
2017-10-12T01:46:45.563Z,21.86
2017-10-12T01:46:58.478Z,21.85
2017-10-12T01:47:11.884Z,21.89
2017-10-12T01:47:24.786Z,21.9
2017-10-12T01:47:38.195Z,21.92
2017-10-12T01:47:51.102Z,21.9
2017-10-12T01:48:03.450Z,21.9
2017-10-12T01:48:16.912Z,21.92
2017-10-12T01:48:29.836Z,21.89
2017-10-12T01:48:43.308Z,21.86
2017-10-12T01:48:56.800Z,21.89
2017-10-12T01:49:10.189Z,21.86
2017-10-12T01:49:23.100Z,21.83
2017-10-12T01:49:36.018Z,21.93
2017-10-12T01:49:49.482Z,21.85
2017-10-12T01:50:02.362Z,21.85
2017-10-12T01:50:15.235Z,21.83
2017-10-12T01:50:28.175Z,21.82
2017-10-12T01:50:41.558Z,21.93
2017-10-12T01:50:54.445Z,21.77
2017-10-12T01:51:06.802Z,21.89
2017-10-12T01:51:19.730Z,21.96
2017-10-12T01:51:32.576Z,21.82
2017-10-12T01:51:46.025Z,21.86
2017-10-12T01:51:59.523Z,21.86
2017-10-12T01:52:12.989Z,21.85
2017-10-12T01:52:25.880Z,21.8
2017-10-12T01:52:39.341Z,21.8
2017-10-12T01:52:52.272Z,21.73
2017-10-12T01:53:05.177Z,21.7
2017-10-12T01:53:18.074Z,21.7
2017-10-12T01:53:30.942Z,21.77
2017-10-12T01:53:43.818Z,21.74
2017-10-12T01:53:57.294Z,21.76
2017-10-12T01:54:10.754Z,21.73
2017-10-12T01:54:24.254Z,21.73
2017-10-12T01:54:37.740Z,21.71
2017-10-12T01:54:51.172Z,21.66
2017-10-12T01:55:05.455Z,21.58
2017-10-12T01:55:18.914Z,21.62
2017-10-12T01:55:31.806Z,21.66
2017-10-12T01:55:45.274Z,21.58
2017-10-12T01:55:58.202Z,21.56
2017-10-12T01:56:11.137Z,21.64
2017-10-12T01:56:24.538Z,21.59
2017-10-12T01:56:37.403Z,21.62
2017-10-12T01:56:50.847Z,21.55
2017-10-12T01:57:03.801Z,21.53
2017-10-12T01:57:16.705Z,21.56
2017-10-12T01:57:29.628Z,21.58
2017-10-12T01:57:43.100Z,21.51
2017-10-12T01:57:56.015Z,21.55
2017-10-12T01:58:08.345Z,21.55
2017-10-12T01:58:21.272Z,21.49
2017-10-12T01:58:34.718Z,21.55
2017-10-12T01:58:48.152Z,21.48
2017-10-12T01:59:01.078Z,21.53
2017-10-12T01:59:14.017Z,21.46
2017-10-12T01:59:27.465Z,21.53
2017-10-12T01:59:40.921Z,21.53
2017-10-12T01:59:52.739Z,21.49
2017-10-12T02:00:05.775Z,21.53
2017-10-12T02:00:19.252Z,21.56
2017-10-12T02:00:32.709Z,21.53
2017-10-12T02:00:46.180Z,21.53
2017-10-12T02:00:59.626Z,21.56
2017-10-12T02:01:13.094Z,21.53
2017-10-12T02:01:26.602Z,21.52
2017-10-12T02:01:40.063Z,21.49
2017-10-12T02:01:53.540Z,21.52
2017-10-12T02:02:05.931Z,21.53
2017-10-12T02:02:19.412Z,21.48
2017-10-12T02:02:32.337Z,21.45
2017-10-12T02:02:45.270Z,21.43
2017-10-12T02:02:58.698Z,21.45
2017-10-12T02:03:12.161Z,21.41
2017-10-12T02:03:25.064Z,21.4
2017-10-12T02:03:38.538Z,21.48
2017-10-12T02:03:52.002Z,21.45
2017-10-12T02:04:04.887Z,21.33
2017-10-12T02:04:18.358Z,21.33
2017-10-12T02:04:31.934Z,21.38
2017-10-12T02:04:44.831Z,21.37
2017-10-12T02:04:57.726Z,21.34
2017-10-12T02:05:11.183Z,21.37
2017-10-12T02:05:24.683Z,21.37
2017-10-12T02:05:37.591Z,21.34
2017-10-12T02:05:50.542Z,21.34
2017-10-12T02:06:03.449Z,21.33
2017-10-12T02:06:16.888Z,21.4
2017-10-12T02:06:30.416Z,21.37
2017-10-12T02:06:43.875Z,21.38
2017-10-12T02:06:56.751Z,21.33
2017-10-12T02:07:09.693Z,21.3
2017-10-12T02:07:23.193Z,21.31
2017-10-12T02:07:36.058Z,21.33
2017-10-12T02:07:49.568Z,21.25
2017-10-12T02:08:03.014Z,21.23
2017-10-12T02:08:16.451Z,21.37
2017-10-12T02:08:29.863Z,21.25
2017-10-12T02:08:42.792Z,21.33
2017-10-12T02:08:56.219Z,21.33
2017-10-12T02:09:09.139Z,21.21
2017-10-12T02:09:22.636Z,21.27
2017-10-12T02:09:34.997Z,21.33
2017-10-12T02:09:48.472Z,21.31
2017-10-12T02:10:02.599Z,21.31
2017-10-12T02:10:16.018Z,21.34
2017-10-12T02:10:29.495Z,21.23
2017-10-12T02:10:42.447Z,21.36
2017-10-12T02:10:55.397Z,21.23
2017-10-12T02:11:08.283Z,21.37
2017-10-12T02:11:21.703Z,21.28
2017-10-12T02:11:34.098Z,21.23
2017-10-12T02:11:47.534Z,21.31
2017-10-12T02:12:00.959Z,21.21
2017-10-12T02:12:12.761Z,21.23
2017-10-12T02:12:26.238Z,21.3
2017-10-12T02:12:38.650Z,21.31
2017-10-12T02:12:51.583Z,21.27
2017-10-12T02:13:05.035Z,21.3
2017-10-12T02:13:16.822Z,21.23
2017-10-12T02:13:29.776Z,21.23
2017-10-12T02:13:42.183Z,21.21
2017-10-12T02:13:55.638Z,21.23
2017-10-12T02:14:08.589Z,21.33
2017-10-12T02:14:22.024Z,21.3
2017-10-12T02:14:34.920Z,21.3
2017-10-12T02:14:47.787Z,21.31
2017-10-12T02:15:00.711Z,21.28
2017-10-12T02:15:14.297Z,21.28
2017-10-12T02:15:27.798Z,21.31
2017-10-12T02:15:40.144Z,21.31
2017-10-12T02:15:53.588Z,21.36
2017-10-12T02:16:07.008Z,21.23
2017-10-12T02:16:20.418Z,21.23
2017-10-12T02:16:33.325Z,21.22
2017-10-12T02:16:45.790Z,21.3
2017-10-12T02:16:59.295Z,21.3
2017-10-12T02:17:12.234Z,21.3
2017-10-12T02:17:25.222Z,21.33
2017-10-12T02:17:37.565Z,21.27
2017-10-12T02:17:50.481Z,21.23
2017-10-12T02:18:03.986Z,21.21
2017-10-12T02:18:16.904Z,21.28
2017-10-12T02:18:30.318Z,21.22
2017-10-12T02:18:42.677Z,21.3
2017-10-12T02:18:55.611Z,21.33
2017-10-12T02:19:09.099Z,21.27
2017-10-12T02:19:21.987Z,21.27
2017-10-12T02:19:34.376Z,21.19
2017-10-12T02:19:47.810Z,21.25
2017-10-12T02:20:01.281Z,21.19
2017-10-12T02:20:14.754Z,21.18
2017-10-12T02:20:28.172Z,21.19
2017-10-12T02:20:41.667Z,21.21
2017-10-12T02:20:54.594Z,21.21
2017-10-12T02:21:08.077Z,21.22
2017-10-12T02:21:21.518Z,21.19
2017-10-12T02:21:34.415Z,21.22
2017-10-12T02:21:47.825Z,21.18
2017-10-12T02:22:01.302Z,21.08
2017-10-12T02:22:14.814Z,21.08
2017-10-12T02:22:28.299Z,21.22
2017-10-12T02:22:41.209Z,21.09
2017-10-12T02:22:54.685Z,21.13
2017-10-12T02:23:08.176Z,21.21
2017-10-12T02:23:21.619Z,21.12
2017-10-12T02:23:35.081Z,21.11
2017-10-12T02:23:48.481Z,21.08
2017-10-12T02:24:01.961Z,21.11
2017-10-12T02:24:14.837Z,21.16
2017-10-12T02:24:27.716Z,21.12
2017-10-12T02:24:40.613Z,21.16
2017-10-12T02:24:54.047Z,21.06
2017-10-12T02:25:07.470Z,21.13
2017-10-12T02:25:20.934Z,21.12
2017-10-12T02:25:34.356Z,21.13
2017-10-12T02:25:47.937Z,21.13
2017-10-12T02:26:01.389Z,21.19
2017-10-12T02:26:14.869Z,21.16
2017-10-12T02:26:27.805Z,21.15
2017-10-12T02:26:40.705Z,21.22
2017-10-12T02:26:53.025Z,21.21
2017-10-12T02:27:05.941Z,21.12
2017-10-12T02:27:18.803Z,21.16
2017-10-12T02:27:32.223Z,21.21
2017-10-12T02:27:45.704Z,21.15
2017-10-12T02:27:58.581Z,21.19
2017-10-12T02:28:12.021Z,21.12
2017-10-12T02:28:24.924Z,21.09
2017-10-12T02:28:38.397Z,21.12
2017-10-12T02:28:51.868Z,21.11
2017-10-12T02:29:05.351Z,21.12
2017-10-12T02:29:17.730Z,21.18
2017-10-12T02:29:31.240Z,21.11
2017-10-12T02:29:44.730Z,21.12
2017-10-12T02:29:58.179Z,21.13
2017-10-12T02:30:11.799Z,21.12
2017-10-12T02:30:25.318Z,21.12
2017-10-12T02:30:38.758Z,21.11
2017-10-12T02:30:52.206Z,21.12
2017-10-12T02:31:05.740Z,21.25
2017-10-12T02:31:19.193Z,21.25
2017-10-12T02:31:32.732Z,21.16
2017-10-12T02:31:45.625Z,21.12
2017-10-12T02:31:59.132Z,21.19
2017-10-12T02:32:12.000Z,21.23
2017-10-12T02:32:25.451Z,21.12
2017-10-12T02:32:38.318Z,21.08
2017-10-12T02:32:51.713Z,21.09
2017-10-12T02:33:05.179Z,21.11
2017-10-12T02:33:18.665Z,21.08
2017-10-12T02:33:31.608Z,21.18
2017-10-12T02:33:45.056Z,21.16
2017-10-12T02:33:57.967Z,21.11
2017-10-12T02:34:11.439Z,21.08
2017-10-12T02:34:24.390Z,21.09
2017-10-12T02:34:37.876Z,21.18
2017-10-12T02:34:51.255Z,21.04
2017-10-12T02:35:04.680Z,21.04
2017-10-12T02:35:17.689Z,21.06
2017-10-12T02:35:31.144Z,21.09
2017-10-12T02:35:44.035Z,21.08
2017-10-12T02:35:57.514Z,21.06
2017-10-12T02:36:10.917Z,21.13
2017-10-12T02:36:23.853Z,21.13
2017-10-12T02:36:36.214Z,21.03
2017-10-12T02:36:49.615Z,21.12
2017-10-12T02:37:02.536Z,21.11
2017-10-12T02:37:15.987Z,21.12
2017-10-12T02:37:29.463Z,21.12
2017-10-12T02:37:42.875Z,21.13
2017-10-12T02:37:56.414Z,21.13
2017-10-12T02:38:08.806Z,21.12
2017-10-12T02:38:21.719Z,21.12
2017-10-12T02:38:34.622Z,21.08
2017-10-12T02:38:47.523Z,21.23
2017-10-12T02:39:00.955Z,21.13
2017-10-12T02:39:14.433Z,21.08
2017-10-12T02:39:27.871Z,21.16
2017-10-12T02:39:40.804Z,21.16
2017-10-12T02:39:53.681Z,21.25
2017-10-12T02:40:07.168Z,21.25
2017-10-12T02:40:20.994Z,21.21
2017-10-12T02:40:34.487Z,21.23
2017-10-12T02:40:47.946Z,21.27
2017-10-12T02:41:01.448Z,21.15
2017-10-12T02:41:14.307Z,21.12
2017-10-12T02:41:27.190Z,21.13
2017-10-12T02:41:40.077Z,21.23
2017-10-12T02:41:53.570Z,21.22
2017-10-12T02:42:06.990Z,21.12
2017-10-12T02:42:19.372Z,21.09
2017-10-12T02:42:32.262Z,21.16
2017-10-12T02:42:45.787Z,21.11
2017-10-12T02:42:57.661Z,21.11
2017-10-12T02:43:10.594Z,21.15
2017-10-12T02:43:24.037Z,21.15
2017-10-12T02:43:37.542Z,21.16
2017-10-12T02:43:50.977Z,21.18
2017-10-12T02:44:03.919Z,21.09
2017-10-12T02:44:17.425Z,21.11
2017-10-12T02:44:30.358Z,21.11
2017-10-12T02:44:43.231Z,21.13
2017-10-12T02:44:56.676Z,21.15
2017-10-12T02:45:10.060Z,21.12
2017-10-12T02:45:23.594Z,21.11
2017-10-12T02:45:37.090Z,21.08
2017-10-12T02:45:50.514Z,21.11
2017-10-12T02:46:03.431Z,21.12
2017-10-12T02:46:16.975Z,21.19
2017-10-12T02:46:29.821Z,21.21
2017-10-12T02:46:42.728Z,21.15
2017-10-12T02:46:55.080Z,21.21
2017-10-12T02:47:08.044Z,21.21
2017-10-12T02:47:20.944Z,21.16
2017-10-12T02:47:34.394Z,21.21
2017-10-12T02:47:47.804Z,21.27
2017-10-12T02:48:01.256Z,21.16
2017-10-12T02:48:14.719Z,21.25
2017-10-12T02:48:27.641Z,21.19
2017-10-12T02:48:41.110Z,21.18
2017-10-12T02:48:53.939Z,21.18
2017-10-12T02:49:07.351Z,21.23
2017-10-12T02:49:20.765Z,21.28
2017-10-12T02:49:34.218Z,21.28
2017-10-12T02:49:47.652Z,21.27